sensor_id;sensor_type;location;lat;lon;timestamp;P1;durP1;ratioP1;P2;durP2;ratioP2
36247;SDS011;22287;50.824;5.644;2022-10-16T00:00:48;2.17;;;1.00;;
36247;SDS011;22287;50.824;5.644;2022-10-16T00:03:15;4.00;;;1.10;;
36247;SDS011;22287;50.824;5.644;2022-10-16T00:05:42;1.95;;;1.10;;
36247;SDS011;22287;50.824;5.644;2022-10-16T00:08:12;1.92;;;0.80;;
36247;SDS011;22287;50.824;5.644;2022-10-16T00:10:39;1.37;;;1.00;;
36247;SDS011;22287;50.824;5.644;2022-10-16T00:13:07;2.00;;;0.90;;
36247;SDS011;22287;50.824;5.644;2022-10-16T00:15:34;3.38;;;1.27;;
36247;SDS011;22287;50.824;5.644;2022-10-16T00:18:03;1.45;;;0.85;;
36247;SDS011;22287;50.824;5.644;2022-10-16T00:20:33;1.42;;;0.57;;
36247;SDS011;22287;50.824;5.644;2022-10-16T00:23:01;1.47;;;0.77;;
36247;SDS011;22287;50.824;5.644;2022-10-16T00:25:27;2.15;;;0.65;;
36247;SDS011;22287;50.824;5.644;2022-10-16T00:27:54;1.10;;;0.60;;
36247;SDS011;22287;50.824;5.644;2022-10-16T00:30:20;1.40;;;0.70;;
36247;SDS011;22287;50.824;5.644;2022-10-16T00:32:47;1.17;;;0.80;;
36247;SDS011;22287;50.824;5.644;2022-10-16T00:35:14;2.20;;;0.70;;
36247;SDS011;22287;50.824;5.644;2022-10-16T00:37:40;1.95;;;0.75;;
36247;SDS011;22287;50.824;5.644;2022-10-16T00:40:09;0.95;;;0.85;;
36247;SDS011;22287;50.824;5.644;2022-10-16T00:42:36;2.80;;;0.77;;
36247;SDS011;22287;50.824;5.644;2022-10-16T00:45:04;1.40;;;0.70;;
36247;SDS011;22287;50.824;5.644;2022-10-16T00:47:32;0.95;;;0.73;;
36247;SDS011;22287;50.824;5.644;2022-10-16T00:50:18;2.13;;;0.60;;
36247;SDS011;22287;50.824;5.644;2022-10-16T00:52:52;1.27;;;0.60;;
36247;SDS011;22287;50.824;5.644;2022-10-16T00:55:20;1.83;;;0.75;;
36247;SDS011;22287;50.824;5.644;2022-10-16T00:57:48;1.20;;;0.70;;
36247;SDS011;22287;50.824;5.644;2022-10-16T01:00:34;0.82;;;0.50;;
36247;SDS011;22287;50.824;5.644;2022-10-16T01:03:01;3.25;;;0.73;;
36247;SDS011;22287;50.824;5.644;2022-10-16T01:05:39;1.20;;;0.52;;
36247;SDS011;22287;50.824;5.644;2022-10-16T01:08:17;2.00;;;0.70;;
36247;SDS011;22287;50.824;5.644;2022-10-16T01:13:42;1.92;;;0.57;;
36247;SDS011;22287;50.824;5.644;2022-10-16T01:16:14;0.80;;;0.60;;
36247;SDS011;22287;50.824;5.644;2022-10-16T01:18:50;2.97;;;0.60;;
36247;SDS011;22287;50.824;5.644;2022-10-16T01:21:35;1.13;;;0.60;;
36247;SDS011;22287;50.824;5.644;2022-10-16T01:24:12;1.88;;;0.50;;
36247;SDS011;22287;50.824;5.644;2022-10-16T01:32:13;2.13;;;0.50;;
36247;SDS011;22287;50.824;5.644;2022-10-16T01:34:43;0.88;;;0.60;;
36247;SDS011;22287;50.824;5.644;2022-10-16T01:37:18;1.70;;;0.52;;
36247;SDS011;22287;50.824;5.644;2022-10-16T01:39:52;1.25;;;0.60;;
36247;SDS011;22287;50.824;5.644;2022-10-16T01:42:27;0.82;;;0.52;;
36247;SDS011;22287;50.824;5.644;2022-10-16T01:44:58;1.77;;;0.75;;
36247;SDS011;22287;50.824;5.644;2022-10-16T01:47:26;1.17;;;0.70;;
36247;SDS011;22287;50.824;5.644;2022-10-16T01:49:56;1.75;;;0.85;;
36247;SDS011;22287;50.824;5.644;2022-10-16T01:52:26;1.13;;;0.70;;
36247;SDS011;22287;50.824;5.644;2022-10-16T01:54:56;1.63;;;0.80;;
36247;SDS011;22287;50.824;5.644;2022-10-16T01:57:24;2.22;;;0.50;;
36247;SDS011;22287;50.824;5.644;2022-10-16T01:59:54;2.40;;;0.60;;
36247;SDS011;22287;50.824;5.644;2022-10-16T02:02:26;1.20;;;0.75;;
36247;SDS011;22287;50.824;5.644;2022-10-16T02:05:02;3.15;;;1.00;;
36247;SDS011;22287;50.824;5.644;2022-10-16T02:07:39;1.98;;;1.00;;
36247;SDS011;22287;50.824;5.644;2022-10-16T02:10:08;1.67;;;0.77;;
36247;SDS011;22287;50.824;5.644;2022-10-16T02:12:36;1.05;;;0.77;;
36247;SDS011;22287;50.824;5.644;2022-10-16T02:15:08;1.13;;;0.85;;
36247;SDS011;22287;50.824;5.644;2022-10-16T02:17:35;2.03;;;0.88;;
36247;SDS011;22287;50.824;5.644;2022-10-16T02:20:16;3.22;;;0.70;;
36247;SDS011;22287;50.824;5.644;2022-10-16T02:22:44;1.45;;;0.63;;
36247;SDS011;22287;50.824;5.644;2022-10-16T02:27:57;1.33;;;0.98;;
36247;SDS011;22287;50.824;5.644;2022-10-16T02:30:36;1.20;;;0.60;;
36247;SDS011;22287;50.824;5.644;2022-10-16T02:33:05;1.40;;;0.88;;
36247;SDS011;22287;50.824;5.644;2022-10-16T02:35:34;2.95;;;0.77;;
36247;SDS011;22287;50.824;5.644;2022-10-16T02:38:03;2.92;;;1.00;;
36247;SDS011;22287;50.824;5.644;2022-10-16T02:40:31;2.78;;;0.80;;
36247;SDS011;22287;50.824;5.644;2022-10-16T02:42:59;1.30;;;0.77;;
36247;SDS011;22287;50.824;5.644;2022-10-16T02:45:26;1.63;;;0.80;;
36247;SDS011;22287;50.824;5.644;2022-10-16T02:47:52;1.90;;;1.02;;
36247;SDS011;22287;50.824;5.644;2022-10-16T02:50:19;2.08;;;0.88;;
36247;SDS011;22287;50.824;5.644;2022-10-16T02:52:46;2.05;;;1.00;;
36247;SDS011;22287;50.824;5.644;2022-10-16T02:55:13;1.00;;;0.82;;
36247;SDS011;22287;50.824;5.644;2022-10-16T02:57:40;3.35;;;0.98;;
36247;SDS011;22287;50.824;5.644;2022-10-16T03:00:10;1.33;;;0.88;;
36247;SDS011;22287;50.824;5.644;2022-10-16T03:02:39;0.98;;;0.77;;
36247;SDS011;22287;50.824;5.644;2022-10-16T03:05:06;2.50;;;0.90;;
36247;SDS011;22287;50.824;5.644;2022-10-16T03:07:33;2.50;;;0.93;;
36247;SDS011;22287;50.824;5.644;2022-10-16T03:10:00;3.38;;;0.95;;
36247;SDS011;22287;50.824;5.644;2022-10-16T03:12:27;2.92;;;1.10;;
36247;SDS011;22287;50.824;5.644;2022-10-16T03:14:55;3.25;;;1.10;;
36247;SDS011;22287;50.824;5.644;2022-10-16T03:17:23;2.10;;;1.00;;
36247;SDS011;22287;50.824;5.644;2022-10-16T03:19:50;1.73;;;0.75;;
36247;SDS011;22287;50.824;5.644;2022-10-16T03:22:17;1.10;;;0.88;;
36247;SDS011;22287;50.824;5.644;2022-10-16T03:24:44;2.05;;;1.10;;
36247;SDS011;22287;50.824;5.644;2022-10-16T03:27:11;2.20;;;1.00;;
36247;SDS011;22287;50.824;5.644;2022-10-16T03:29:37;2.22;;;1.08;;
36247;SDS011;22287;50.824;5.644;2022-10-16T03:32:04;2.25;;;1.00;;
36247;SDS011;22287;50.824;5.644;2022-10-16T03:34:31;1.33;;;1.08;;
36247;SDS011;22287;50.824;5.644;2022-10-16T03:36:57;4.35;;;1.15;;
36247;SDS011;22287;50.824;5.644;2022-10-16T03:39:24;2.30;;;1.40;;
36247;SDS011;22287;50.824;5.644;2022-10-16T03:41:51;3.95;;;1.20;;
36247;SDS011;22287;50.824;5.644;2022-10-16T03:44:17;2.50;;;1.50;;
36247;SDS011;22287;50.824;5.644;2022-10-16T03:46:44;2.20;;;1.13;;
36247;SDS011;22287;50.824;5.644;2022-10-16T03:49:10;1.45;;;1.10;;
36247;SDS011;22287;50.824;5.644;2022-10-16T03:51:38;1.40;;;0.90;;
36247;SDS011;22287;50.824;5.644;2022-10-16T03:54:04;1.52;;;1.20;;
36247;SDS011;22287;50.824;5.644;2022-10-16T03:56:31;2.30;;;1.52;;
36247;SDS011;22287;50.824;5.644;2022-10-16T03:58:58;2.05;;;1.42;;
36247;SDS011;22287;50.824;5.644;2022-10-16T04:01:25;2.50;;;0.90;;
36247;SDS011;22287;50.824;5.644;2022-10-16T04:03:52;1.67;;;1.27;;
36247;SDS011;22287;50.824;5.644;2022-10-16T04:06:18;2.65;;;1.10;;
36247;SDS011;22287;50.824;5.644;2022-10-16T04:08:45;3.25;;;1.48;;
36247;SDS011;22287;50.824;5.644;2022-10-16T04:11:12;2.83;;;1.23;;
36247;SDS011;22287;50.824;5.644;2022-10-16T04:13:39;1.65;;;1.15;;
36247;SDS011;22287;50.824;5.644;2022-10-16T04:16:05;1.20;;;0.90;;
36247;SDS011;22287;50.824;5.644;2022-10-16T04:18:32;1.92;;;1.00;;
36247;SDS011;22287;50.824;5.644;2022-10-16T04:21:03;3.83;;;1.52;;
36247;SDS011;22287;50.824;5.644;2022-10-16T04:23:30;2.65;;;1.70;;
36247;SDS011;22287;50.824;5.644;2022-10-16T04:25:58;1.73;;;1.48;;
36247;SDS011;22287;50.824;5.644;2022-10-16T04:28:39;4.00;;;1.60;;
36247;SDS011;22287;50.824;5.644;2022-10-16T04:33:47;4.15;;;1.50;;
36247;SDS011;22287;50.824;5.644;2022-10-16T04:36:14;2.70;;;1.17;;
36247;SDS011;22287;50.824;5.644;2022-10-16T04:38:40;1.50;;;1.40;;
36247;SDS011;22287;50.824;5.644;2022-10-16T04:41:07;2.75;;;1.63;;
36247;SDS011;22287;50.824;5.644;2022-10-16T04:43:34;2.95;;;1.50;;
36247;SDS011;22287;50.824;5.644;2022-10-16T04:46:01;1.85;;;1.30;;
36247;SDS011;22287;50.824;5.644;2022-10-16T04:48:28;2.33;;;1.25;;
36247;SDS011;22287;50.824;5.644;2022-10-16T04:50:54;2.58;;;1.63;;
36247;SDS011;22287;50.824;5.644;2022-10-16T04:53:21;2.83;;;1.70;;
36247;SDS011;22287;50.824;5.644;2022-10-16T04:55:48;4.43;;;1.65;;
36247;SDS011;22287;50.824;5.644;2022-10-16T04:58:15;3.88;;;1.80;;
36247;SDS011;22287;50.824;5.644;2022-10-16T05:00:42;1.77;;;1.67;;
36247;SDS011;22287;50.824;5.644;2022-10-16T05:03:08;2.15;;;1.75;;
36247;SDS011;22287;50.824;5.644;2022-10-16T05:05:36;3.72;;;2.03;;
36247;SDS011;22287;50.824;5.644;2022-10-16T05:08:03;2.53;;;1.55;;
36247;SDS011;22287;50.824;5.644;2022-10-16T05:10:30;3.70;;;1.40;;
36247;SDS011;22287;50.824;5.644;2022-10-16T05:12:57;3.17;;;1.98;;
36247;SDS011;22287;50.824;5.644;2022-10-16T05:15:24;2.28;;;1.90;;
36247;SDS011;22287;50.824;5.644;2022-10-16T05:17:54;2.97;;;1.98;;
36247;SDS011;22287;50.824;5.644;2022-10-16T05:20:21;4.85;;;2.10;;
36247;SDS011;22287;50.824;5.644;2022-10-16T05:22:49;6.43;;;2.70;;
36247;SDS011;22287;50.824;5.644;2022-10-16T05:25:16;6.32;;;2.25;;
36247;SDS011;22287;50.824;5.644;2022-10-16T05:27:43;3.35;;;2.10;;
36247;SDS011;22287;50.824;5.644;2022-10-16T05:30:09;2.65;;;2.28;;
36247;SDS011;22287;50.824;5.644;2022-10-16T05:32:37;5.40;;;2.58;;
36247;SDS011;22287;50.824;5.644;2022-10-16T05:35:04;4.78;;;2.60;;
36247;SDS011;22287;50.824;5.644;2022-10-16T05:37:32;4.72;;;2.28;;
36247;SDS011;22287;50.824;5.644;2022-10-16T05:39:59;4.78;;;2.53;;
36247;SDS011;22287;50.824;5.644;2022-10-16T05:42:26;3.08;;;2.53;;
36247;SDS011;22287;50.824;5.644;2022-10-16T05:44:55;3.08;;;2.50;;
36247;SDS011;22287;50.824;5.644;2022-10-16T05:47:22;2.70;;;2.35;;
36247;SDS011;22287;50.824;5.644;2022-10-16T05:49:49;3.75;;;2.47;;
36247;SDS011;22287;50.824;5.644;2022-10-16T05:52:16;5.40;;;2.80;;
36247;SDS011;22287;50.824;5.644;2022-10-16T05:54:56;2.63;;;2.28;;
36247;SDS011;22287;50.824;5.644;2022-10-16T05:57:23;3.72;;;2.20;;
36247;SDS011;22287;50.824;5.644;2022-10-16T05:59:50;4.32;;;2.63;;
36247;SDS011;22287;50.824;5.644;2022-10-16T06:02:17;3.28;;;2.03;;
36247;SDS011;22287;50.824;5.644;2022-10-16T06:04:43;3.97;;;1.92;;
36247;SDS011;22287;50.824;5.644;2022-10-16T06:07:10;4.28;;;2.05;;
36247;SDS011;22287;50.824;5.644;2022-10-16T06:09:37;3.13;;;2.55;;
36247;SDS011;22287;50.824;5.644;2022-10-16T06:12:04;3.45;;;2.28;;
36247;SDS011;22287;50.824;5.644;2022-10-16T06:14:30;4.38;;;2.05;;
36247;SDS011;22287;50.824;5.644;2022-10-16T06:16:57;4.18;;;2.65;;
36247;SDS011;22287;50.824;5.644;2022-10-16T06:19:24;6.43;;;2.08;;
36247;SDS011;22287;50.824;5.644;2022-10-16T06:21:51;2.90;;;1.90;;
36247;SDS011;22287;50.824;5.644;2022-10-16T06:24:18;2.60;;;1.80;;
36247;SDS011;22287;50.824;5.644;2022-10-16T06:26:45;4.20;;;2.10;;
36247;SDS011;22287;50.824;5.644;2022-10-16T06:29:11;4.22;;;2.13;;
36247;SDS011;22287;50.824;5.644;2022-10-16T06:31:38;3.45;;;2.20;;
36247;SDS011;22287;50.824;5.644;2022-10-16T06:34:04;3.55;;;1.98;;
36247;SDS011;22287;50.824;5.644;2022-10-16T06:36:35;4.82;;;1.98;;
36247;SDS011;22287;50.824;5.644;2022-10-16T06:39:02;5.50;;;2.63;;
36247;SDS011;22287;50.824;5.644;2022-10-16T06:41:29;3.45;;;2.40;;
36247;SDS011;22287;50.824;5.644;2022-10-16T06:44:06;4.57;;;2.08;;
36247;SDS011;22287;50.824;5.644;2022-10-16T06:46:34;2.58;;;1.90;;
36247;SDS011;22287;50.824;5.644;2022-10-16T06:49:01;3.53;;;1.90;;
36247;SDS011;22287;50.824;5.644;2022-10-16T06:51:27;2.47;;;2.10;;
36247;SDS011;22287;50.824;5.644;2022-10-16T06:53:54;3.60;;;2.45;;
36247;SDS011;22287;50.824;5.644;2022-10-16T06:56:29;2.55;;;2.08;;
36247;SDS011;22287;50.824;5.644;2022-10-16T06:58:57;3.75;;;1.90;;
36247;SDS011;22287;50.824;5.644;2022-10-16T07:01:25;7.18;;;1.95;;
36247;SDS011;22287;50.824;5.644;2022-10-16T07:03:53;3.30;;;1.90;;
36247;SDS011;22287;50.824;5.644;2022-10-16T07:06:20;3.03;;;1.52;;
36247;SDS011;22287;50.824;5.644;2022-10-16T07:08:49;3.10;;;1.63;;
36247;SDS011;22287;50.824;5.644;2022-10-16T07:11:18;21.42;;;3.55;;
36247;SDS011;22287;50.824;5.644;2022-10-16T07:13:46;5.53;;;2.05;;
36247;SDS011;22287;50.824;5.644;2022-10-16T07:16:17;4.15;;;1.90;;
36247;SDS011;22287;50.824;5.644;2022-10-16T07:18:45;5.50;;;2.38;;
36247;SDS011;22287;50.824;5.644;2022-10-16T07:21:19;5.55;;;2.05;;
36247;SDS011;22287;50.824;5.644;2022-10-16T07:23:50;7.68;;;1.92;;
36247;SDS011;22287;50.824;5.644;2022-10-16T07:26:21;3.15;;;1.52;;
36247;SDS011;22287;50.824;5.644;2022-10-16T07:28:48;3.55;;;1.70;;
36247;SDS011;22287;50.824;5.644;2022-10-16T07:31:16;16.30;;;2.85;;
36247;SDS011;22287;50.824;5.644;2022-10-16T07:33:44;4.20;;;1.98;;
36247;SDS011;22287;50.824;5.644;2022-10-16T07:36:13;23.30;;;3.65;;
36247;SDS011;22287;50.824;5.644;2022-10-16T07:38:42;11.60;;;2.13;;
36247;SDS011;22287;50.824;5.644;2022-10-16T07:41:11;19.58;;;3.97;;
36247;SDS011;22287;50.824;5.644;2022-10-16T07:43:39;12.88;;;2.50;;
36247;SDS011;22287;50.824;5.644;2022-10-16T07:46:06;9.82;;;2.67;;
36247;SDS011;22287;50.824;5.644;2022-10-16T07:48:34;5.47;;;2.33;;
36247;SDS011;22287;50.824;5.644;2022-10-16T07:51:02;5.70;;;2.40;;
36247;SDS011;22287;50.824;5.644;2022-10-16T07:53:31;11.87;;;5.37;;
36247;SDS011;22287;50.824;5.644;2022-10-16T07:56:02;20.40;;;10.88;;
36247;SDS011;22287;50.824;5.644;2022-10-16T07:58:31;17.50;;;10.75;;
36247;SDS011;22287;50.824;5.644;2022-10-16T08:00:59;8.02;;;4.47;;
36247;SDS011;22287;50.824;5.644;2022-10-16T08:03:29;4.75;;;2.20;;
36247;SDS011;22287;50.824;5.644;2022-10-16T08:05:56;2.30;;;1.27;;
36247;SDS011;22287;50.824;5.644;2022-10-16T08:08:24;6.70;;;2.00;;
36247;SDS011;22287;50.824;5.644;2022-10-16T08:10:50;6.97;;;1.83;;
36247;SDS011;22287;50.824;5.644;2022-10-16T08:13:17;4.13;;;1.73;;
36247;SDS011;22287;50.824;5.644;2022-10-16T08:15:44;4.32;;;1.20;;
36247;SDS011;22287;50.824;5.644;2022-10-16T08:18:12;3.15;;;1.30;;
36247;SDS011;22287;50.824;5.644;2022-10-16T08:20:41;2.58;;;1.38;;
36247;SDS011;22287;50.824;5.644;2022-10-16T08:23:11;2.75;;;1.42;;
36247;SDS011;22287;50.824;5.644;2022-10-16T08:25:40;8.25;;;1.35;;
36247;SDS011;22287;50.824;5.644;2022-10-16T08:28:08;1.77;;;1.15;;
36247;SDS011;22287;50.824;5.644;2022-10-16T08:30:37;6.47;;;2.70;;
36247;SDS011;22287;50.824;5.644;2022-10-16T08:33:04;5.80;;;2.95;;
36247;SDS011;22287;50.824;5.644;2022-10-16T08:35:32;15.23;;;7.05;;
36247;SDS011;22287;50.824;5.644;2022-10-16T08:37:59;9.25;;;5.03;;
36247;SDS011;22287;50.824;5.644;2022-10-16T08:40:28;12.40;;;5.53;;
36247;SDS011;22287;50.824;5.644;2022-10-16T08:50:49;6.40;;;2.33;;
36247;SDS011;22287;50.824;5.644;2022-10-16T08:53:19;3.17;;;1.75;;
36247;SDS011;22287;50.824;5.644;2022-10-16T08:55:50;3.35;;;0.80;;
36247;SDS011;22287;50.824;5.644;2022-10-16T08:58:20;1.77;;;0.90;;
36247;SDS011;22287;50.824;5.644;2022-10-16T09:00:58;3.60;;;1.35;;
36247;SDS011;22287;50.824;5.644;2022-10-16T09:09:31;3.25;;;1.50;;
36247;SDS011;22287;50.824;5.644;2022-10-16T09:12:24;3.85;;;1.60;;
36247;SDS011;22287;50.824;5.644;2022-10-16T09:15:25;3.90;;;1.60;;
36247;SDS011;22287;50.824;5.644;2022-10-16T09:20:52;2.05;;;1.10;;
36247;SDS011;22287;50.824;5.644;2022-10-16T09:23:26;2.92;;;1.00;;
36247;SDS011;22287;50.824;5.644;2022-10-16T09:25:58;3.40;;;1.55;;
36247;SDS011;22287;50.824;5.644;2022-10-16T09:28:25;3.75;;;0.77;;
36247;SDS011;22287;50.824;5.644;2022-10-16T09:30:52;3.25;;;0.60;;
36247;SDS011;22287;50.824;5.644;2022-10-16T09:33:20;3.88;;;0.70;;
36247;SDS011;22287;50.824;5.644;2022-10-16T09:35:50;2.35;;;0.60;;
36247;SDS011;22287;50.824;5.644;2022-10-16T09:38:24;3.00;;;0.57;;
36247;SDS011;22287;50.824;5.644;2022-10-16T09:41:03;3.20;;;0.80;;
36247;SDS011;22287;50.824;5.644;2022-10-16T09:43:42;1.55;;;0.65;;
36247;SDS011;22287;50.824;5.644;2022-10-16T09:48:51;7.82;;;2.25;;
36247;SDS011;22287;50.824;5.644;2022-10-16T09:51:22;2.10;;;0.45;;
36247;SDS011;22287;50.824;5.644;2022-10-16T09:53:55;1.90;;;0.70;;
36247;SDS011;22287;50.824;5.644;2022-10-16T09:56:25;3.38;;;0.65;;
36247;SDS011;22287;50.824;5.644;2022-10-16T09:59:00;2.08;;;0.70;;
36247;SDS011;22287;50.824;5.644;2022-10-16T10:01:31;1.35;;;0.60;;
36247;SDS011;22287;50.824;5.644;2022-10-16T10:04:04;2.70;;;0.55;;
36247;SDS011;22287;50.824;5.644;2022-10-16T10:06:33;3.85;;;0.98;;
36247;SDS011;22287;50.824;5.644;2022-10-16T10:09:05;1.70;;;0.60;;
36247;SDS011;22287;50.824;5.644;2022-10-16T10:14:37;4.53;;;0.60;;
36247;SDS011;22287;50.824;5.644;2022-10-16T10:38:58;1.95;;;0.65;;
36247;SDS011;22287;50.824;5.644;2022-10-16T10:44:52;2.03;;;0.68;;
36247;SDS011;22287;50.824;5.644;2022-10-16T10:59:14;1.67;;;0.50;;
36247;SDS011;22287;50.824;5.644;2022-10-16T11:05:03;1.67;;;0.63;;
36247;SDS011;22287;50.824;5.644;2022-10-16T11:08:00;2.13;;;0.55;;
36247;SDS011;22287;50.824;5.644;2022-10-16T11:10:47;3.00;;;0.45;;
36247;SDS011;22287;50.824;5.644;2022-10-16T11:13:24;2.30;;;0.40;;
36247;SDS011;22287;50.824;5.644;2022-10-16T11:15:55;1.60;;;0.70;;
36247;SDS011;22287;50.824;5.644;2022-10-16T11:21:08;1.15;;;0.50;;
36247;SDS011;22287;50.824;5.644;2022-10-16T11:26:19;4.50;;;0.80;;
36247;SDS011;22287;50.824;5.644;2022-10-16T11:28:51;2.47;;;0.82;;
36247;SDS011;22287;50.824;5.644;2022-10-16T11:31:36;1.77;;;0.60;;
36247;SDS011;22287;50.824;5.644;2022-10-16T11:34:12;2.00;;;0.50;;
36247;SDS011;22287;50.824;5.644;2022-10-16T11:36:58;2.93;;;0.47;;
36247;SDS011;22287;50.824;5.644;2022-10-16T11:39:34;2.92;;;0.73;;
36247;SDS011;22287;50.824;5.644;2022-10-16T11:42:18;2.45;;;0.50;;
36247;SDS011;22287;50.824;5.644;2022-10-16T11:45:07;1.67;;;0.40;;
36247;SDS011;22287;50.824;5.644;2022-10-16T11:50:39;2.28;;;0.57;;
36247;SDS011;22287;50.824;5.644;2022-10-16T11:56:13;3.13;;;0.60;;
36247;SDS011;22287;50.824;5.644;2022-10-16T12:01:33;1.40;;;0.50;;
36247;SDS011;22287;50.824;5.644;2022-10-16T12:04:22;2.15;;;0.50;;
36247;SDS011;22287;50.824;5.644;2022-10-16T12:07:12;2.65;;;0.50;;
36247;SDS011;22287;50.824;5.644;2022-10-16T12:09:44;1.65;;;0.40;;
36247;SDS011;22287;50.824;5.644;2022-10-16T12:15:25;2.97;;;0.70;;
36247;SDS011;22287;50.824;5.644;2022-10-16T12:18:24;3.90;;;0.40;;
36247;SDS011;22287;50.824;5.644;2022-10-16T12:20:54;2.47;;;0.50;;
36247;SDS011;22287;50.824;5.644;2022-10-16T12:23:30;2.25;;;0.60;;
36247;SDS011;22287;50.824;5.644;2022-10-16T12:25:58;4.22;;;0.85;;
36247;SDS011;22287;50.824;5.644;2022-10-16T12:28:27;1.88;;;0.60;;
36247;SDS011;22287;50.824;5.644;2022-10-16T12:30:57;1.80;;;0.40;;
36247;SDS011;22287;50.824;5.644;2022-10-16T12:33:43;1.30;;;0.30;;
36247;SDS011;22287;50.824;5.644;2022-10-16T12:39:01;1.33;;;0.35;;
36247;SDS011;22287;50.824;5.644;2022-10-16T12:43:57;1.70;;;0.30;;
36247;SDS011;22287;50.824;5.644;2022-10-16T12:51:38;0.68;;;0.10;;
36247;SDS011;22287;50.824;5.644;2022-10-16T13:04:44;1.10;;;0.30;;
36247;SDS011;22287;50.824;5.644;2022-10-16T13:18:15;2.70;;;0.43;;
36247;SDS011;22287;50.824;5.644;2022-10-16T13:29:13;1.40;;;0.30;;
36247;SDS011;22287;50.824;5.644;2022-10-16T13:31:40;2.38;;;0.30;;
36247;SDS011;22287;50.824;5.644;2022-10-16T13:34:19;0.80;;;0.30;;
36247;SDS011;22287;50.824;5.644;2022-10-16T13:36:48;1.88;;;0.50;;
36247;SDS011;22287;50.824;5.644;2022-10-16T13:39:23;2.10;;;0.40;;
36247;SDS011;22287;50.824;5.644;2022-10-16T13:44:37;2.47;;;0.38;;
36247;SDS011;22287;50.824;5.644;2022-10-16T13:47:16;5.13;;;1.92;;
36247;SDS011;22287;50.824;5.644;2022-10-16T13:49:45;6.20;;;2.47;;
36247;SDS011;22287;50.824;5.644;2022-10-16T13:52:16;3.42;;;1.45;;
36247;SDS011;22287;50.824;5.644;2022-10-16T13:54:47;5.45;;;3.70;;
36247;SDS011;22287;50.824;5.644;2022-10-16T13:57:14;34.08;;;20.98;;
36247;SDS011;22287;50.824;5.644;2022-10-16T13:59:52;27.95;;;16.05;;
36247;SDS011;22287;50.824;5.644;2022-10-16T14:02:25;22.25;;;10.48;;
36247;SDS011;22287;50.824;5.644;2022-10-16T14:04:56;8.13;;;3.90;;
36247;SDS011;22287;50.824;5.644;2022-10-16T14:07:24;3.47;;;1.77;;
36247;SDS011;22287;50.824;5.644;2022-10-16T14:09:54;4.85;;;2.00;;
36247;SDS011;22287;50.824;5.644;2022-10-16T14:12:21;3.70;;;1.50;;
36247;SDS011;22287;50.824;5.644;2022-10-16T14:14:51;4.28;;;1.50;;
36247;SDS011;22287;50.824;5.644;2022-10-16T14:22:43;1.42;;;0.73;;
36247;SDS011;22287;50.824;5.644;2022-10-16T14:28:13;3.35;;;0.73;;
36247;SDS011;22287;50.824;5.644;2022-10-16T14:30:51;2.55;;;0.77;;
36247;SDS011;22287;50.824;5.644;2022-10-16T14:33:20;3.35;;;0.82;;
36247;SDS011;22287;50.824;5.644;2022-10-16T14:38:37;2.70;;;0.70;;
36247;SDS011;22287;50.824;5.644;2022-10-16T14:41:06;0.50;;;0.30;;
36247;SDS011;22287;50.824;5.644;2022-10-16T14:43:36;1.77;;;0.50;;
36247;SDS011;22287;50.824;5.644;2022-10-16T14:46:12;0.43;;;0.30;;
36247;SDS011;22287;50.824;5.644;2022-10-16T14:48:43;1.67;;;0.35;;
36247;SDS011;22287;50.824;5.644;2022-10-16T14:51:14;3.42;;;0.47;;
36247;SDS011;22287;50.824;5.644;2022-10-16T14:53:41;0.77;;;0.40;;
36247;SDS011;22287;50.824;5.644;2022-10-16T14:56:09;1.92;;;0.28;;
36247;SDS011;22287;50.824;5.644;2022-10-16T14:58:43;1.05;;;0.30;;
36247;SDS011;22287;50.824;5.644;2022-10-16T15:01:10;1.67;;;0.50;;
36247;SDS011;22287;50.824;5.644;2022-10-16T15:03:38;2.03;;;0.40;;
36247;SDS011;22287;50.824;5.644;2022-10-16T15:06:09;1.35;;;0.50;;
36247;SDS011;22287;50.824;5.644;2022-10-16T15:08:38;2.95;;;0.30;;
36247;SDS011;22287;50.824;5.644;2022-10-16T15:11:05;2.22;;;0.40;;
36247;SDS011;22287;50.824;5.644;2022-10-16T15:13:38;0.95;;;0.40;;
36247;SDS011;22287;50.824;5.644;2022-10-16T15:16:04;1.25;;;0.47;;
36247;SDS011;22287;50.824;5.644;2022-10-16T15:18:33;2.92;;;0.40;;
36247;SDS011;22287;50.824;5.644;2022-10-16T15:21:00;1.17;;;0.50;;
36247;SDS011;22287;50.824;5.644;2022-10-16T15:23:27;4.22;;;0.63;;
36247;SDS011;22287;50.824;5.644;2022-10-16T15:25:54;4.07;;;0.60;;
36247;SDS011;22287;50.824;5.644;2022-10-16T15:28:22;4.20;;;0.88;;
36247;SDS011;22287;50.824;5.644;2022-10-16T15:30:51;1.60;;;0.50;;
36247;SDS011;22287;50.824;5.644;2022-10-16T15:33:20;2.65;;;0.70;;
36247;SDS011;22287;50.824;5.644;2022-10-16T15:35:54;1.50;;;0.40;;
36247;SDS011;22287;50.824;5.644;2022-10-16T15:38:21;1.00;;;0.50;;
36247;SDS011;22287;50.824;5.644;2022-10-16T15:40:49;1.15;;;0.30;;
36247;SDS011;22287;50.824;5.644;2022-10-16T15:43:16;3.15;;;0.60;;
36247;SDS011;22287;50.824;5.644;2022-10-16T15:45:43;1.92;;;0.50;;
36247;SDS011;22287;50.824;5.644;2022-10-16T15:48:12;1.42;;;0.47;;
36247;SDS011;22287;50.824;5.644;2022-10-16T15:50:40;2.15;;;0.70;;
36247;SDS011;22287;50.824;5.644;2022-10-16T15:53:07;1.67;;;0.70;;
36247;SDS011;22287;50.824;5.644;2022-10-16T15:55:33;4.97;;;0.73;;
36247;SDS011;22287;50.824;5.644;2022-10-16T15:58:04;3.22;;;1.25;;
36247;SDS011;22287;50.824;5.644;2022-10-16T16:00:31;1.30;;;0.82;;
36247;SDS011;22287;50.824;5.644;2022-10-16T16:02:58;1.35;;;0.60;;
36247;SDS011;22287;50.824;5.644;2022-10-16T16:05:26;2.05;;;0.45;;
36247;SDS011;22287;50.824;5.644;2022-10-16T16:07:53;3.55;;;0.70;;
36247;SDS011;22287;50.824;5.644;2022-10-16T16:10:20;1.13;;;0.60;;
36247;SDS011;22287;50.824;5.644;2022-10-16T16:12:47;2.90;;;0.50;;
36247;SDS011;22287;50.824;5.644;2022-10-16T16:15:19;1.20;;;0.43;;
36247;SDS011;22287;50.824;5.644;2022-10-16T16:17:47;1.25;;;0.52;;
36247;SDS011;22287;50.824;5.644;2022-10-16T16:20:14;4.55;;;0.80;;
36247;SDS011;22287;50.824;5.644;2022-10-16T16:22:41;3.78;;;0.80;;
36247;SDS011;22287;50.824;5.644;2022-10-16T16:25:08;1.42;;;0.70;;
36247;SDS011;22287;50.824;5.644;2022-10-16T16:27:35;4.88;;;0.90;;
36247;SDS011;22287;50.824;5.644;2022-10-16T16:30:09;5.85;;;1.00;;
36247;SDS011;22287;50.824;5.644;2022-10-16T16:32:40;2.45;;;0.70;;
36247;SDS011;22287;50.824;5.644;2022-10-16T16:35:07;1.05;;;0.52;;
36247;SDS011;22287;50.824;5.644;2022-10-16T16:37:34;1.52;;;0.60;;
36247;SDS011;22287;50.824;5.644;2022-10-16T16:40:00;1.83;;;0.50;;
36247;SDS011;22287;50.824;5.644;2022-10-16T16:42:27;1.55;;;0.70;;
36247;SDS011;22287;50.824;5.644;2022-10-16T16:44:54;1.73;;;0.65;;
36247;SDS011;22287;50.824;5.644;2022-10-16T16:47:21;3.70;;;1.35;;
36247;SDS011;22287;50.824;5.644;2022-10-16T16:50:01;5.90;;;1.05;;
36247;SDS011;22287;50.824;5.644;2022-10-16T16:52:31;1.00;;;0.60;;
36247;SDS011;22287;50.824;5.644;2022-10-16T16:54:58;2.00;;;0.80;;
36247;SDS011;22287;50.824;5.644;2022-10-16T16:57:24;4.82;;;0.70;;
36247;SDS011;22287;50.824;5.644;2022-10-16T16:59:51;3.30;;;0.60;;
36247;SDS011;22287;50.824;5.644;2022-10-16T17:02:18;3.25;;;0.88;;
36247;SDS011;22287;50.824;5.644;2022-10-16T17:04:45;1.58;;;0.70;;
36247;SDS011;22287;50.824;5.644;2022-10-16T17:07:12;2.15;;;0.93;;
36247;SDS011;22287;50.824;5.644;2022-10-16T17:09:39;2.10;;;0.80;;
36247;SDS011;22287;50.824;5.644;2022-10-16T17:12:05;3.20;;;0.90;;
36247;SDS011;22287;50.824;5.644;2022-10-16T17:14:32;3.67;;;0.60;;
36247;SDS011;22287;50.824;5.644;2022-10-16T17:16:59;3.03;;;0.65;;
36247;SDS011;22287;50.824;5.644;2022-10-16T17:19:26;2.30;;;0.60;;
36247;SDS011;22287;50.824;5.644;2022-10-16T17:21:53;1.20;;;0.70;;
36247;SDS011;22287;50.824;5.644;2022-10-16T17:24:20;2.05;;;0.60;;
36247;SDS011;22287;50.824;5.644;2022-10-16T17:26:47;1.42;;;0.50;;
36247;SDS011;22287;50.824;5.644;2022-10-16T17:29:14;1.80;;;0.80;;
36247;SDS011;22287;50.824;5.644;2022-10-16T17:31:43;1.00;;;0.80;;